Meteo Giornale » Osservazioni meteo Italia » Catania-Fontanarossa

ore: 18:50 - Osservazioni Meteo Catania-Fontanarossa
Lat. 37° 28' N Lon. 15° 3' E Alt. 11 metri s.l.m.

sereno Europe/Rome

29 °C

Sereno

Temp. 24 Ore

20 °C

31 °C

Nord-Est

24 Km/h

Dew point 20 °C

Umidità 58 %

Visibilità  10 Km

Il sole sorge alle ore 05:57

Il sole tramonta alle ore 20:14

Data e Ora Cielo e Fenomeni T °C DP °C Um. % Pres. hPa Vis. km Vento km/h
Oggi h: 18:50 sereno Sereno 29 20 58 1015 10 NE 24
Oggi h: 18:20 sereno Sereno 29 21 62 1015 10 NE 24
Oggi h: 17:50 sereno Sereno 30 20 55 1015 10 NE 25.9
Oggi h: 17:20 sereno Sereno 30 21 58 1015 10 NE 20.3
Oggi h: 16:50 sereno Sereno 30 22 62 1015 10 NE 24
Oggi h: 16:20 sereno Sereno 30 22 62 1015 10 NE 20.3
Oggi h: 15:50 sereno Sereno 30 21 58 1015 10 NE 22.2
Oggi h: 15:20 sereno Sereno 30 21 58 1015 10 E/NE 22.2
Oggi h: 14:50 sereno Sereno 30 20 55 1016 10 NE 22.2
Oggi h: 14:20 sereno Sereno 30 21 58 1016 10 E/NE 20.3
Oggi h: 13:50 sereno Sereno 30 20 55 1016 10 E/NE 20.3
Oggi h: 13:20 sereno Sereno 31 18 45 1016 10 E 18.5
Oggi h: 12:50 sereno Sereno 30 18 48 1016 10 E/NE 16.7
Oggi h: 12:20 sereno Sereno 30 21 58 1016 10 E/NE 14.8
Oggi h: 11:50 sereno Sereno 30 19 51 1016 10 E/NE 13
Oggi h: 11:20 sereno Sereno 30 19 51 1016 10 E 14.8
Oggi h: 10:50 sereno Sereno 30 17 45 1016 10 E 13
Oggi h: 10:20 sereno Sereno 30 15 40 1016 10 E/NE 13
Oggi h: 09:50 sereno Sereno 31 14 35 1016 10 N 5.5
Oggi h: 09:20 sereno Sereno 30 16 42 1016 10 N 1.8
Oggi h: 08:50 sereno Sereno 27 16 50 1016 10 N 5.5
Oggi h: 08:20 sereno Sereno 25 15 53 1016 10 N 5.5
Oggi h: 07:50 sereno Sereno 24 16 60 1015 10 N 3.7
Oggi h: 07:20 sereno Sereno 22 16 68 1015 10 N 3.7
Oggi h: 06:50 sereno Sereno 20 16 77 1015 10 O/SO 7.4
Oggi h: 06:20 sereno Sereno 20 16 77 1015 10 O/SO 7.4
Oggi h: 05:50 sereno Sereno 20 17 82 1014 10 O/SO 9.3
Oggi h: 05:20 sereno Sereno 20 17 82 1014 10 O/SO 9.3
Oggi h: 04:50 sereno Sereno 21 17 77 1014 10 O/SO 7.4
Oggi h: 04:20 sereno Sereno 21 18 82 1014 10 O/SO 11.1
Oggi h: 03:50 sereno Sereno 21 18 82 1014 10 O/SO 9.3
Oggi h: 03:20 sereno Sereno 22 18 78 1014 10 SO 9.3
Oggi h: 02:50 sereno Sereno 22 19 83 1014 10 O/SO 9.3
Oggi h: 02:20 sereno Sereno 23 19 78 1014 10 SO 7.4
Oggi h: 01:50 sereno Sereno 23 19 78 1014 10 O/SO 7.4
Oggi h: 01:20 sereno Sereno 23 18 73 1014 10 O/SO 9.3
Oggi h: 00:50 sereno Sereno 23 17 68 1015 10 O/SO 11.1
Oggi h: 00:20 sereno Sereno 23 18 73 1015 10 O/SO 9.3
Ieri h: 23:50 sereno Sereno 24 19 73 1015 10 O 9.3
Ieri h: 23:20 sereno Sereno 24 21 83 1015 10 N 3.7
Ieri h: 22:50 sereno Sereno 26 21 73 1015 10 N 5.5
Ieri h: 22:20 sereno Sereno 27 21 69 1014 10 N/NE 11.1
Ieri h: 21:50 sereno Sereno 27 22 74 1014 10 NE 14.8
Ieri h: 21:20 sereno Sereno 27 21 69 1014 10 NE 16.7
Ieri h: 20:50 sereno Sereno 27 21 69 1014 10 E/NE 14.8
Ieri h: 20:20 sereno Sereno 27 21 69 1014 10 NE 14.8
Ieri h: 19:50 sereno Sereno 28 21 65 1013 10 E/NE 14.8